Terminal Aerodrome Forecast
Issued by NWS Houston/Galveston, TX

Home | Current Version | Previous Version | Text Only | Print | Product List | Glossary On
Versions: 1 2 3 4 5 6 7 8 9 10 11 12 13 14 15 16 17 18 19
000
FTUS44 KHGX 241125
TAFGLS
TAF
KGLS 241125Z 2412/2512 22011KT P6SM FEW025 BKN200
     FM241900 21013KT P6SM SCT200
     FM250300 20013KT P6SM FEW025 BKN150=

USA.gov is the U.S. government's official web portal to all federal, state and local government web resources and services.